createdAt,value
2023-04-06T00:02:14.733Z,3.50
2023-04-06T00:04:45.217Z,3.30
2023-04-06T00:07:14.608Z,3.10
2023-04-06T00:09:44.970Z,3.40
2023-04-06T00:12:14.381Z,3.70
2023-04-06T00:14:43.751Z,4.10
2023-04-06T00:17:13.273Z,3.10
2023-04-06T00:19:42.719Z,2.80
2023-04-06T00:22:12.817Z,4.00
2023-04-06T00:24:42.172Z,3.90
2023-04-06T00:27:11.843Z,2.60
2023-04-06T00:29:41.508Z,3.50
2023-04-06T00:32:11.355Z,3.50
2023-04-06T00:34:41.782Z,3.00
2023-04-06T00:37:13.511Z,2.10
2023-04-06T00:39:42.838Z,2.60
2023-04-06T00:42:15.614Z,2.10
2023-04-06T00:44:46.034Z,1.20
2023-04-06T00:47:15.933Z,3.90
2023-04-06T00:49:46.606Z,2.60
2023-04-06T00:52:17.224Z,2.50
2023-04-06T00:54:51.944Z,3.90
2023-04-06T00:57:22.718Z,3.60
2023-04-06T00:59:57.594Z,3.40
2023-04-06T01:02:27.400Z,4.10
2023-04-06T01:04:58.160Z,2.70
2023-04-06T01:07:41.668Z,3.50
2023-04-06T01:10:30.240Z,3.50
2023-04-06T01:13:05.346Z,3.60
2023-04-06T01:16:04.489Z,3.00
2023-04-06T01:18:45.796Z,1.70
2023-04-06T01:21:19.887Z,3.40
2023-04-06T01:24:26.217Z,2.40
2023-04-06T01:27:07.688Z,2.40
2023-04-06T01:29:46.667Z,3.30
2023-04-06T01:32:19.138Z,3.40
2023-04-06T01:34:52.774Z,3.80
2023-04-06T01:39:55.608Z,3.00
2023-04-06T01:42:36.813Z,4.40
2023-04-06T01:47:40.483Z,2.00
2023-04-06T01:50:13.871Z,3.20
2023-04-06T01:52:46.583Z,3.40
2023-04-06T01:55:16.662Z,3.20
2023-04-06T01:58:04.883Z,3.70
2023-04-06T02:00:39.843Z,3.80
2023-04-06T02:03:09.787Z,3.10
2023-04-06T02:05:39.970Z,2.50
2023-04-06T02:08:22.016Z,2.40
2023-04-06T02:10:52.025Z,4.00
2023-04-06T02:13:33.866Z,3.10
2023-04-06T02:16:04.239Z,3.60
2023-04-06T02:18:33.923Z,4.20
2023-04-06T02:21:03.726Z,3.10
2023-04-06T02:23:33.405Z,2.60
2023-04-06T02:26:03.074Z,4.40
2023-04-06T02:28:32.482Z,3.80
2023-04-06T02:31:04.750Z,3.30
2023-04-06T02:33:35.901Z,3.90
2023-04-06T02:36:06.537Z,3.70
2023-04-06T02:38:36.878Z,3.00
2023-04-06T02:41:06.584Z,3.60
2023-04-06T02:43:37.115Z,3.80
2023-04-06T02:46:17.889Z,3.40
2023-04-06T02:48:47.661Z,3.70
2023-04-06T02:51:17.442Z,3.70
2023-04-06T02:53:50.841Z,4.20
2023-04-06T02:56:22.965Z,3.00
2023-04-06T02:58:53.974Z,3.10
2023-04-06T03:01:25.307Z,3.50
2023-04-06T03:03:58.307Z,3.60
2023-04-06T03:06:29.364Z,3.80
2023-04-06T03:09:03.594Z,4.00
2023-04-06T03:11:34.506Z,4.10
2023-04-06T03:14:04.997Z,2.80
2023-04-06T03:16:37.564Z,4.10
2023-04-06T03:19:08.173Z,3.90
2023-04-06T03:21:37.602Z,3.80
2023-04-06T03:24:08.760Z,3.40
2023-04-06T03:26:38.293Z,2.50
2023-04-06T03:29:10.088Z,3.70
2023-04-06T03:31:39.830Z,4.10
2023-04-06T03:34:27.568Z,3.80
2023-04-06T03:37:09.337Z,3.70
2023-04-06T03:39:47.130Z,4.40
2023-04-06T03:42:24.344Z,4.50
2023-04-06T03:44:58.564Z,3.60
2023-04-06T03:47:28.866Z,4.20
2023-04-06T03:50:01.623Z,4.60
2023-04-06T03:52:34.744Z,4.30
2023-04-06T03:55:06.194Z,4.20
2023-04-06T03:57:36.136Z,2.90
2023-04-06T04:00:07.166Z,3.20
2023-04-06T04:02:43.721Z,3.90
2023-04-06T04:05:19.703Z,3.90
2023-04-06T04:07:51.979Z,4.70
2023-04-06T04:10:23.299Z,3.00
2023-04-06T04:12:52.830Z,3.90
2023-04-06T04:15:27.292Z,3.40
2023-04-06T04:18:00.945Z,4.10
2023-04-06T04:20:31.534Z,3.30
2023-04-06T04:23:01.324Z,4.80
2023-04-06T04:25:33.588Z,5.50
2023-04-06T04:28:04.125Z,3.70
2023-04-06T04:30:34.163Z,4.00
2023-04-06T04:35:36.636Z,3.70
2023-04-06T04:38:07.636Z,4.50
2023-04-06T04:40:39.420Z,4.50
2023-04-06T04:43:13.594Z,4.70
2023-04-06T04:45:43.694Z,4.30
2023-04-06T04:48:21.772Z,3.50
2023-04-06T04:51:08.176Z,3.80
2023-04-06T04:53:50.257Z,4.00
2023-04-06T04:56:24.722Z,3.30
2023-04-06T04:58:58.325Z,4.10
2023-04-06T05:01:28.228Z,3.30
2023-04-06T05:03:59.349Z,3.90
2023-04-06T05:06:29.281Z,3.60
2023-04-06T05:08:59.129Z,4.80
2023-04-06T05:11:31.724Z,4.20
2023-04-06T05:14:03.110Z,5.90
2023-04-06T05:16:32.584Z,6.80
2023-04-06T05:19:03.561Z,4.30
2023-04-06T05:21:40.275Z,4.30
2023-04-06T05:24:11.050Z,3.90
2023-04-06T05:26:41.097Z,4.60
2023-04-06T05:29:18.527Z,4.20
2023-04-06T05:31:49.061Z,4.90
2023-04-06T05:34:19.656Z,3.80
2023-04-06T05:36:54.162Z,4.60
2023-04-06T05:39:28.100Z,4.40
2023-04-06T05:42:03.911Z,5.00
2023-04-06T05:44:47.851Z,3.70
2023-04-06T05:47:21.654Z,4.90
2023-04-06T05:49:56.500Z,4.30
2023-04-06T05:52:34.833Z,4.80
2023-04-06T05:55:05.861Z,3.70
2023-04-06T05:57:36.919Z,4.60
2023-04-06T06:00:17.214Z,4.00
2023-04-06T06:02:54.235Z,5.50
2023-04-06T06:05:26.645Z,4.20
2023-04-06T06:07:58.378Z,4.90
2023-04-06T06:10:34.248Z,3.20
2023-04-06T06:13:04.066Z,3.80
2023-04-06T06:15:41.220Z,4.90
2023-04-06T06:18:13.057Z,3.70
2023-04-06T06:20:44.250Z,4.30
2023-04-06T06:23:20.877Z,4.60
2023-04-06T06:25:53.679Z,4.30
2023-04-06T06:28:26.684Z,4.50
2023-04-06T06:31:01.542Z,3.90
2023-04-06T06:33:31.223Z,3.80
2023-04-06T06:36:04.765Z,3.00
2023-04-06T06:38:34.872Z,4.20
2023-04-06T06:41:05.052Z,3.60
2023-04-06T06:43:38.402Z,4.10
2023-04-06T06:46:12.189Z,4.50
2023-04-06T06:48:42.752Z,3.80
2023-04-06T06:51:13.190Z,4.80
2023-04-06T06:53:44.018Z,4.80
2023-04-06T06:56:15.242Z,5.10
2023-04-06T06:58:44.904Z,5.30
2023-04-06T07:01:14.569Z,4.50
2023-04-06T07:03:45.430Z,4.20
2023-04-06T07:06:15.928Z,4.80
2023-04-06T07:08:46.571Z,5.30
2023-04-06T07:11:16.069Z,5.30
2023-04-06T07:13:47.912Z,5.20
2023-04-06T07:16:24.392Z,3.70
2023-04-06T07:18:54.134Z,3.30
2023-04-06T07:21:24.750Z,3.00
2023-04-06T07:23:56.336Z,3.00
2023-04-06T07:26:29.426Z,4.00
2023-04-06T07:28:58.810Z,3.70
2023-04-06T07:31:29.428Z,3.40
2023-04-06T07:33:58.960Z,4.40
2023-04-06T07:36:30.568Z,4.40
2023-04-06T07:39:03.523Z,4.80
2023-04-06T07:41:34.357Z,5.10
2023-04-06T07:44:05.769Z,4.20
2023-04-06T07:46:37.791Z,4.50
2023-04-06T07:49:07.903Z,3.30
2023-04-06T07:51:41.216Z,4.50
2023-04-06T07:54:12.579Z,3.50
2023-04-06T07:56:44.348Z,4.30
2023-04-06T07:59:15.332Z,4.50
2023-04-06T08:01:50.719Z,4.70
2023-04-06T08:04:20.435Z,4.90
2023-04-06T08:06:54.729Z,3.10
2023-04-06T08:09:24.801Z,4.10
2023-04-06T08:11:55.144Z,4.20
2023-04-06T08:14:25.202Z,4.80
2023-04-06T08:16:54.887Z,4.40
2023-04-06T08:19:25.049Z,4.90
2023-04-06T08:21:55.433Z,4.00
2023-04-06T08:24:28.261Z,4.50
2023-04-06T08:27:00.659Z,4.10
2023-04-06T08:29:31.957Z,4.30
2023-04-06T08:32:06.597Z,4.40
2023-04-06T08:34:37.135Z,3.80
2023-04-06T08:37:10.090Z,3.80
2023-04-06T08:39:40.204Z,4.30
2023-04-06T08:42:22.133Z,4.50
2023-04-06T08:44:56.262Z,4.60
2023-04-06T08:47:26.466Z,3.60
2023-04-06T08:49:58.254Z,4.00
2023-04-06T08:52:29.829Z,3.00
2023-04-06T08:54:59.953Z,3.40
2023-04-06T08:57:31.751Z,3.50
2023-04-06T09:00:02.918Z,3.90
2023-04-06T09:02:34.237Z,4.10
2023-04-06T09:05:04.998Z,4.10
2023-04-06T09:07:35.202Z,5.70
2023-04-06T09:10:07.909Z,4.70
2023-04-06T09:15:24.668Z,4.10
2023-04-06T09:17:56.079Z,4.40
2023-04-06T09:20:29.244Z,4.00
2023-04-06T09:22:58.748Z,3.60
2023-04-06T09:25:28.908Z,2.60
2023-04-06T09:28:04.471Z,3.90
2023-04-06T09:30:33.912Z,4.40
2023-04-06T09:33:04.006Z,4.80
2023-04-06T09:35:34.637Z,3.60
2023-04-06T09:38:13.625Z,4.20
2023-04-06T09:44:18.967Z,3.40
2023-04-06T09:47:12.634Z,4.10
2023-04-06T09:49:59.050Z,3.90
2023-04-06T09:52:35.409Z,4.20
2023-04-06T09:55:26.560Z,3.40
2023-04-06T09:58:31.140Z,4.40
2023-04-06T10:01:10.762Z,3.90
2023-04-06T10:03:57.545Z,5.00
2023-04-06T10:06:49.454Z,4.30
2023-04-06T10:09:19.858Z,3.40
2023-04-06T10:11:52.036Z,3.20
2023-04-06T10:14:24.489Z,3.90
2023-04-06T10:16:55.529Z,2.70
2023-04-06T10:19:30.862Z,4.30
2023-04-06T10:22:04.621Z,3.40
2023-04-06T10:24:33.824Z,4.40
2023-04-06T10:29:50.212Z,4.50
2023-04-06T10:32:21.146Z,4.50
2023-04-06T10:35:06.767Z,4.30
2023-04-06T10:37:52.646Z,4.80
2023-04-06T10:40:31.600Z,4.00
2023-04-06T10:43:15.982Z,4.50
2023-04-06T10:45:46.200Z,4.00
2023-04-06T10:48:16.826Z,3.40
2023-04-06T10:50:51.188Z,3.40
2023-04-06T10:53:29.214Z,3.80
2023-04-06T10:55:59.427Z,2.80
2023-04-06T10:58:29.863Z,2.60
2023-04-06T11:01:01.914Z,3.00
2023-04-06T11:03:48.438Z,3.90
2023-04-06T11:06:32.634Z,4.00
2023-04-06T11:09:03.109Z,3.90
2023-04-06T11:11:32.936Z,3.20
2023-04-06T11:14:04.590Z,2.80
2023-04-06T11:16:34.714Z,2.00
2023-04-06T11:19:10.971Z,3.00
2023-04-06T11:21:42.875Z,2.90
2023-04-06T11:24:16.784Z,3.00
2023-04-06T11:27:02.907Z,3.70
2023-04-06T11:29:38.245Z,3.50
2023-04-06T11:32:12.147Z,2.70
2023-04-06T11:34:42.456Z,3.10
2023-04-06T11:37:23.261Z,2.90
2023-04-06T11:39:55.771Z,3.20
2023-04-06T11:42:27.885Z,3.50
2023-04-06T11:45:04.757Z,2.50
2023-04-06T11:47:37.818Z,2.40
2023-04-06T11:50:13.040Z,3.30
2023-04-06T11:52:44.260Z,2.80
2023-04-06T11:55:16.880Z,3.20
2023-04-06T11:57:46.777Z,3.20
2023-04-06T12:00:23.116Z,2.80
2023-04-06T12:02:53.037Z,2.70
2023-04-06T12:05:24.651Z,3.20
2023-04-06T12:07:54.371Z,3.20
2023-04-06T12:10:23.962Z,3.10
2023-04-06T12:12:53.203Z,2.50
2023-04-06T12:15:22.912Z,3.20
2023-04-06T12:17:52.729Z,3.50
2023-04-06T12:20:27.083Z,2.10
2023-04-06T12:22:57.652Z,3.00
2023-04-06T12:25:27.399Z,3.20
2023-04-06T12:27:57.380Z,2.60
2023-04-06T12:30:37.620Z,3.30
2023-04-06T12:33:20.631Z,2.80
2023-04-06T12:35:50.347Z,2.20
2023-04-06T12:38:22.212Z,3.10
2023-04-06T12:40:52.212Z,3.60
2023-04-06T12:43:22.016Z,3.80
2023-04-06T12:45:52.214Z,2.40
2023-04-06T12:48:26.337Z,2.50
2023-04-06T12:51:05.048Z,3.00
2023-04-06T12:53:36.172Z,2.10
2023-04-06T12:58:50.018Z,1.90
2023-04-06T13:01:20.029Z,2.70
2023-04-06T13:03:55.363Z,3.00
2023-04-06T13:06:29.175Z,2.20
2023-04-06T13:09:01.506Z,2.80
2023-04-06T13:11:31.807Z,3.00
2023-04-06T13:14:04.500Z,3.20
2023-04-06T13:16:36.859Z,3.60
2023-04-06T13:19:06.762Z,2.80
2023-04-06T13:21:36.671Z,2.40
2023-04-06T13:24:37.136Z,2.20
2023-04-06T13:27:17.472Z,2.10
2023-04-06T13:30:01.002Z,2.60
2023-04-06T13:32:30.211Z,2.60
2023-04-06T13:34:59.864Z,1.80
2023-04-06T13:37:29.238Z,2.30
2023-04-06T13:39:58.820Z,2.40
2023-04-06T13:42:29.355Z,3.30
2023-04-06T13:44:59.262Z,3.10
2023-04-06T13:47:29.109Z,2.70
2023-04-06T13:49:59.025Z,2.20
2023-04-06T13:52:29.383Z,1.90
2023-04-06T13:55:05.102Z,2.50
2023-04-06T13:57:35.263Z,2.40
2023-04-06T14:00:08.178Z,3.50
2023-04-06T14:02:38.938Z,1.90
2023-04-06T14:05:17.591Z,2.10
2023-04-06T14:14:41.028Z,1.80
2023-04-06T14:17:13.744Z,2.30
2023-04-06T14:23:21.176Z,2.30
2023-04-06T14:26:07.010Z,2.20
2023-04-06T14:28:37.779Z,2.20
2023-04-06T14:31:16.786Z,1.40
2023-04-06T14:33:46.939Z,2.40
2023-04-06T14:36:30.962Z,2.20
2023-04-06T14:39:06.202Z,2.70
2023-04-06T14:41:44.070Z,1.90
2023-04-06T14:44:22.319Z,2.20
2023-04-06T14:46:52.641Z,2.30
2023-04-06T14:49:22.911Z,2.40
2023-04-06T14:51:54.652Z,2.10
2023-04-06T14:54:34.277Z,1.60
2023-04-06T14:57:04.912Z,2.30
2023-04-06T14:59:55.916Z,1.50
2023-04-06T15:02:37.600Z,2.50
2023-04-06T15:05:11.447Z,1.80
2023-04-06T15:07:46.516Z,1.90
2023-04-06T15:10:18.460Z,2.60
2023-04-06T15:12:49.898Z,1.10
2023-04-06T15:15:37.368Z,2.70
2023-04-06T15:18:17.756Z,1.80
2023-04-06T15:20:54.296Z,1.70
2023-04-06T15:23:24.681Z,2.40
2023-04-06T15:25:54.640Z,2.40
2023-04-06T15:28:25.026Z,2.80
2023-04-06T15:30:56.090Z,2.50
2023-04-06T15:33:25.794Z,2.60
2023-04-06T15:35:56.339Z,2.10
2023-04-06T15:38:25.802Z,2.80
2023-04-06T15:40:55.874Z,2.20
2023-04-06T15:43:26.220Z,2.50
2023-04-06T15:45:57.712Z,2.00
2023-04-06T15:48:26.937Z,2.30
2023-04-06T15:50:59.284Z,2.20
2023-04-06T15:53:29.916Z,2.40
2023-04-06T15:56:05.533Z,3.00
2023-04-06T15:58:35.276Z,2.10
2023-04-06T16:01:22.640Z,2.40
2023-04-06T16:03:52.706Z,2.40
2023-04-06T16:06:30.641Z,1.70
2023-04-06T16:08:59.994Z,2.60
2023-04-06T16:11:51.332Z,2.80
2023-04-06T16:14:20.289Z,2.00
2023-04-06T16:16:57.621Z,2.40
2023-04-06T16:19:30.924Z,2.50
2023-04-06T16:22:16.098Z,2.00
2023-04-06T16:24:48.557Z,2.50
2023-04-06T16:27:18.521Z,1.80
2023-04-06T16:29:48.397Z,2.90
2023-04-06T16:32:18.844Z,3.20
2023-04-06T16:34:51.514Z,3.20
2023-04-06T16:37:20.752Z,3.70
2023-04-06T16:39:50.796Z,4.20
2023-04-06T16:42:21.696Z,2.70
2023-04-06T16:44:51.926Z,3.90
2023-04-06T16:47:21.358Z,4.20
2023-04-06T16:49:52.673Z,3.90
2023-04-06T16:52:21.820Z,3.80
2023-04-06T16:54:52.057Z,4.50
2023-04-06T16:57:21.531Z,3.90
2023-04-06T16:59:52.188Z,4.20
2023-04-06T17:02:22.197Z,4.30
2023-04-06T17:04:52.106Z,4.50
2023-04-06T17:07:26.948Z,5.00
2023-04-06T17:09:56.026Z,4.10
2023-04-06T17:12:25.685Z,4.50
2023-04-06T17:14:55.723Z,4.90
2023-04-06T17:17:25.092Z,4.10
2023-04-06T17:19:54.204Z,3.60
2023-04-06T17:22:24.898Z,4.20
2023-04-06T17:24:55.298Z,3.80
2023-04-06T17:27:27.206Z,4.20
2023-04-06T17:29:58.068Z,4.20
2023-04-06T17:32:28.491Z,4.30
2023-04-06T17:34:59.437Z,4.40
2023-04-06T17:37:28.963Z,5.00
2023-04-06T17:39:59.042Z,5.60
2023-04-06T17:42:36.104Z,5.40
2023-04-06T17:45:06.945Z,4.60
2023-04-06T17:47:36.810Z,5.10
2023-04-06T17:50:07.374Z,4.80
2023-04-06T17:52:38.536Z,5.10
2023-04-06T17:55:08.867Z,4.90
2023-04-06T17:57:41.035Z,4.60
2023-04-06T18:00:15.630Z,5.40
2023-04-06T18:02:47.175Z,3.40
2023-04-06T18:05:16.934Z,5.50
2023-04-06T18:07:47.818Z,5.60
2023-04-06T18:10:18.452Z,2.90
2023-04-06T18:12:47.706Z,5.40
2023-04-06T18:15:18.414Z,4.80
2023-04-06T18:17:48.169Z,4.60
2023-04-06T18:20:18.345Z,4.40
2023-04-06T18:22:48.000Z,5.70
2023-04-06T18:25:21.656Z,5.30
2023-04-06T18:27:51.930Z,5.00
2023-04-06T18:30:21.392Z,5.80
2023-04-06T18:32:53.308Z,5.70
2023-04-06T18:35:23.152Z,4.50
2023-04-06T18:37:53.392Z,5.50
2023-04-06T18:40:35.598Z,6.30
2023-04-06T18:45:43.772Z,5.90
2023-04-06T18:48:14.712Z,6.20
2023-04-06T18:51:02.514Z,6.30
2023-04-06T18:53:43.201Z,6.10
2023-04-06T18:56:20.110Z,5.90
2023-04-06T18:58:52.550Z,5.40
2023-04-06T19:01:29.867Z,6.80
2023-04-06T19:04:00.587Z,6.30
2023-04-06T19:06:31.557Z,5.70
2023-04-06T19:09:04.433Z,5.40
2023-04-06T19:11:34.406Z,5.90
2023-04-06T19:14:04.830Z,5.60
2023-04-06T19:16:42.259Z,5.80
2023-04-06T19:19:12.653Z,5.50
2023-04-06T19:21:45.230Z,6.90
2023-04-06T19:24:14.590Z,6.00
2023-04-06T19:26:44.208Z,5.20
2023-04-06T19:31:46.253Z,5.40
2023-04-06T19:34:18.881Z,6.70
2023-04-06T19:36:48.854Z,5.10
2023-04-06T19:39:18.996Z,5.70
2023-04-06T19:41:48.869Z,5.20
2023-04-06T19:44:19.040Z,5.80
2023-04-06T19:46:48.682Z,6.10
2023-04-06T19:49:18.257Z,6.20
2023-04-06T19:51:47.964Z,6.40
2023-04-06T19:54:17.723Z,7.00
2023-04-06T19:56:48.379Z,5.20
2023-04-06T19:59:18.335Z,6.50
2023-04-06T20:01:47.547Z,4.90
2023-04-06T20:04:17.478Z,5.80
2023-04-06T20:06:54.067Z,4.90
2023-04-06T20:09:30.031Z,5.90
2023-04-06T20:12:03.536Z,5.90
2023-04-06T20:14:43.943Z,6.30
2023-04-06T20:17:14.318Z,5.00
2023-04-06T20:19:43.841Z,6.40
2023-04-06T20:22:20.999Z,7.20
2023-04-06T20:24:51.055Z,6.60
2023-04-06T20:27:21.637Z,6.10
2023-04-06T20:29:51.022Z,6.30
2023-04-06T20:32:21.199Z,6.30
2023-04-06T20:34:51.219Z,6.20
2023-04-06T20:37:22.071Z,6.50
2023-04-06T20:39:55.497Z,6.30
2023-04-06T20:42:26.088Z,5.70
2023-04-06T20:44:57.648Z,5.50
2023-04-06T20:47:28.496Z,6.60
2023-04-06T20:49:57.943Z,7.00
2023-04-06T20:52:33.086Z,5.60
2023-04-06T20:55:06.576Z,4.30
2023-04-06T20:57:36.367Z,3.80
2023-04-06T21:00:23.160Z,5.10
2023-04-06T21:02:53.497Z,5.10
2023-04-06T21:05:23.510Z,5.00
2023-04-06T21:07:54.662Z,5.30
2023-04-06T21:10:24.589Z,5.30
2023-04-06T21:12:54.552Z,5.00
2023-04-06T21:15:24.049Z,5.60
2023-04-06T21:17:54.144Z,5.50
2023-04-06T21:20:24.324Z,5.00
2023-04-06T21:22:54.028Z,5.70
2023-04-06T21:25:24.644Z,5.00
2023-04-06T21:27:54.715Z,5.40
2023-04-06T21:30:24.688Z,5.40
2023-04-06T21:32:55.910Z,5.40
2023-04-06T21:35:25.741Z,4.50
2023-04-06T21:37:55.301Z,5.60
2023-04-06T21:40:25.466Z,5.30
2023-04-06T21:46:26.191Z,4.30
2023-04-06T21:48:57.286Z,5.60
2023-04-06T21:51:41.530Z,4.40
2023-04-06T21:54:14.238Z,5.30
2023-04-06T22:00:47.054Z,5.60
2023-04-06T22:03:17.187Z,7.50
2023-04-06T22:05:47.447Z,7.30
2023-04-06T22:08:25.298Z,7.40
2023-04-06T22:11:01.865Z,7.90
2023-04-06T22:13:32.332Z,8.00
2023-04-06T22:16:02.569Z,6.10
2023-04-06T22:18:32.497Z,7.20
2023-04-06T22:21:04.029Z,7.40
2023-04-06T22:23:34.077Z,7.30
2023-04-06T22:26:03.620Z,7.60
2023-04-06T22:28:33.370Z,8.10
2023-04-06T22:31:02.962Z,7.50
2023-04-06T22:33:33.030Z,7.70
2023-04-06T22:36:03.551Z,7.20
2023-04-06T22:38:33.548Z,6.60
2023-04-06T22:41:03.671Z,7.60
2023-04-06T22:43:33.584Z,7.20
2023-04-06T22:46:04.082Z,6.90
2023-04-06T22:48:34.083Z,7.20
2023-04-06T22:51:12.032Z,7.10
2023-04-06T22:53:42.272Z,6.90
2023-04-06T22:56:12.301Z,7.50
2023-04-06T22:58:42.397Z,6.70
2023-04-06T23:01:13.460Z,7.60
2023-04-06T23:03:44.083Z,7.10
2023-04-06T23:06:14.814Z,6.40
2023-04-06T23:08:43.918Z,6.20
2023-04-06T23:11:13.884Z,7.10
2023-04-06T23:13:43.020Z,7.50
2023-04-06T23:16:13.045Z,7.00
2023-04-06T23:18:42.558Z,7.30
2023-04-06T23:21:13.038Z,8.10
2023-04-06T23:23:42.640Z,7.00
2023-04-06T23:26:13.046Z,7.20
2023-04-06T23:28:43.049Z,6.90
2023-04-06T23:31:12.128Z,6.30
2023-04-06T23:33:41.662Z,6.20
2023-04-06T23:36:11.644Z,6.50
2023-04-06T23:38:41.755Z,6.10
2023-04-06T23:41:16.384Z,6.00
2023-04-06T23:43:45.790Z,7.50
2023-04-06T23:46:19.731Z,7.90
2023-04-06T23:48:48.827Z,8.30
2023-04-06T23:51:18.665Z,7.10
2023-04-06T23:53:49.324Z,6.90
2023-04-06T23:56:20.032Z,8.10
2023-04-06T23:58:49.916Z,6.00
